sensor_id;sensor_type;location;lat;lon;timestamp;pressure;altitude;pressure_sealevel;temperature;humidity
23016;BME280;11674;52.428;13.584;2022-12-18T00:02:51;103049.47;;;-2.68;76.04
23016;BME280;11674;52.428;13.584;2022-12-18T00:07:58;103058.94;;;-2.72;76.30
23016;BME280;11674;52.428;13.584;2022-12-18T00:13:05;103065.63;;;-2.66;76.15
23016;BME280;11674;52.428;13.584;2022-12-18T00:18:12;103066.31;;;-2.64;76.12
23016;BME280;11674;52.428;13.584;2022-12-18T00:23:30;103070.94;;;-2.74;75.98
23016;BME280;11674;52.428;13.584;2022-12-18T00:28:38;103060.69;;;-2.90;76.19
23016;BME280;11674;52.428;13.584;2022-12-18T00:33:46;103050.94;;;-2.83;76.46
23016;BME280;11674;52.428;13.584;2022-12-18T00:38:59;103061.09;;;-2.85;76.03
23016;BME280;11674;52.428;13.584;2022-12-18T00:44:08;103054.09;;;-2.87;76.32
23016;BME280;11674;52.428;13.584;2022-12-18T00:49:21;103057.38;;;-2.84;76.40
23016;BME280;11674;52.428;13.584;2022-12-18T00:54:29;103052.38;;;-2.79;76.29
23016;BME280;11674;52.428;13.584;2022-12-18T00:59:35;103042.66;;;-2.81;76.26
23016;BME280;11674;52.428;13.584;2022-12-18T01:04:42;103039.97;;;-2.91;75.97
23016;BME280;11674;52.428;13.584;2022-12-18T01:09:53;103038.56;;;-2.95;76.08
23016;BME280;11674;52.428;13.584;2022-12-18T01:15:01;103057.00;;;-2.98;75.70
23016;BME280;11674;52.428;13.584;2022-12-18T01:20:15;103054.13;;;-2.97;75.95
23016;BME280;11674;52.428;13.584;2022-12-18T01:25:22;103064.25;;;-2.99;75.89
23016;BME280;11674;52.428;13.584;2022-12-18T01:30:30;103081.00;;;-3.03;75.66
23016;BME280;11674;52.428;13.584;2022-12-18T01:35:41;103075.59;;;-3.13;75.76
23016;BME280;11674;52.428;13.584;2022-12-18T01:41:00;103078.16;;;-3.11;75.93
23016;BME280;11674;52.428;13.584;2022-12-18T01:46:13;103081.00;;;-3.03;75.97
23016;BME280;11674;52.428;13.584;2022-12-18T01:51:24;103076.56;;;-3.04;76.00
23016;BME280;11674;52.428;13.584;2022-12-18T01:56:32;103074.13;;;-2.98;75.89
23016;BME280;11674;52.428;13.584;2022-12-18T02:01:40;103080.16;;;-3.04;75.73
23016;BME280;11674;52.428;13.584;2022-12-18T02:07:00;103073.84;;;-3.04;75.95
23016;BME280;11674;52.428;13.584;2022-12-18T02:12:18;103090.69;;;-3.01;75.96
23016;BME280;11674;52.428;13.584;2022-12-18T02:17:54;103090.13;;;-3.04;75.65
23016;BME280;11674;52.428;13.584;2022-12-18T02:28:20;103083.25;;;-2.99;75.76
23016;BME280;11674;52.428;13.584;2022-12-18T02:33:35;103084.69;;;-2.95;75.74
23016;BME280;11674;52.428;13.584;2022-12-18T02:38:44;103096.25;;;-3.02;75.48
23016;BME280;11674;52.428;13.584;2022-12-18T02:43:57;103102.44;;;-3.00;75.58
23016;BME280;11674;52.428;13.584;2022-12-18T03:00:19;103123.69;;;-3.15;75.41
23016;BME280;11674;52.428;13.584;2022-12-18T03:05:45;103119.00;;;-3.13;75.87
23016;BME280;11674;52.428;13.584;2022-12-18T03:11:07;103128.16;;;-3.14;75.92
23016;BME280;11674;52.428;13.584;2022-12-18T03:16:28;103122.88;;;-3.25;75.58
23016;BME280;11674;52.428;13.584;2022-12-18T03:21:49;103127.00;;;-3.40;75.57
23016;BME280;11674;52.428;13.584;2022-12-18T03:27:01;103135.41;;;-3.43;75.58
23016;BME280;11674;52.428;13.584;2022-12-18T03:32:16;103130.72;;;-3.41;75.75
23016;BME280;11674;52.428;13.584;2022-12-18T03:37:25;103129.84;;;-3.41;75.53
23016;BME280;11674;52.428;13.584;2022-12-18T03:42:46;103129.41;;;-3.37;75.44
23016;BME280;11674;52.428;13.584;2022-12-18T03:59:11;103129.78;;;-3.70;75.17
23016;BME280;11674;52.428;13.584;2022-12-18T04:04:20;103131.94;;;-3.73;75.67
23016;BME280;11674;52.428;13.584;2022-12-18T04:09:31;103126.81;;;-3.67;75.77
23016;BME280;11674;52.428;13.584;2022-12-18T04:14:41;103129.97;;;-3.62;75.58
23016;BME280;11674;52.428;13.584;2022-12-18T04:19:48;103126.81;;;-3.57;75.71
23016;BME280;11674;52.428;13.584;2022-12-18T04:24:55;103122.72;;;-3.52;75.62
23016;BME280;11674;52.428;13.584;2022-12-18T04:30:09;103136.41;;;-3.44;75.51
23016;BME280;11674;52.428;13.584;2022-12-18T04:35:17;103148.25;;;-3.54;75.51
23016;BME280;11674;52.428;13.584;2022-12-18T04:40:23;103153.25;;;-3.50;75.65
23016;BME280;11674;52.428;13.584;2022-12-18T04:45:32;103155.25;;;-3.42;75.62
23016;BME280;11674;52.428;13.584;2022-12-18T04:50:38;103160.69;;;-3.33;75.70
23016;BME280;11674;52.428;13.584;2022-12-18T04:55:45;103165.22;;;-3.43;75.39
23016;BME280;11674;52.428;13.584;2022-12-18T05:00:52;103165.34;;;-3.54;75.45
23016;BME280;11674;52.428;13.584;2022-12-18T05:06:00;103163.66;;;-3.55;75.40
23016;BME280;11674;52.428;13.584;2022-12-18T05:11:09;103165.22;;;-3.52;75.53
23016;BME280;11674;52.428;13.584;2022-12-18T05:16:16;103169.78;;;-3.53;75.48
23016;BME280;11674;52.428;13.584;2022-12-18T05:21:24;103159.22;;;-3.56;75.51
23016;BME280;11674;52.428;13.584;2022-12-18T05:26:30;103171.50;;;-3.52;75.32
23016;BME280;11674;52.428;13.584;2022-12-18T05:31:38;103178.06;;;-3.54;75.47
23016;BME280;11674;52.428;13.584;2022-12-18T05:36:46;103183.78;;;-3.48;75.33
23016;BME280;11674;52.428;13.584;2022-12-18T05:41:52;103180.38;;;-3.40;75.53
23016;BME280;11674;52.428;13.584;2022-12-18T05:46:59;103202.78;;;-3.38;75.60
23016;BME280;11674;52.428;13.584;2022-12-18T05:52:06;103205.91;;;-3.33;75.63
23016;BME280;11674;52.428;13.584;2022-12-18T05:57:14;103205.38;;;-3.27;75.46
23016;BME280;11674;52.428;13.584;2022-12-18T06:02:20;103201.66;;;-3.36;75.44
23016;BME280;11674;52.428;13.584;2022-12-18T06:07:27;103207.22;;;-3.28;75.68
23016;BME280;11674;52.428;13.584;2022-12-18T06:12:35;103211.09;;;-3.21;75.74
23016;BME280;11674;52.428;13.584;2022-12-18T06:17:41;103218.81;;;-3.16;75.56
23016;BME280;11674;52.428;13.584;2022-12-18T06:22:49;103231.69;;;-3.09;75.60
23016;BME280;11674;52.428;13.584;2022-12-18T06:28:11;103238.09;;;-3.10;75.66
23016;BME280;11674;52.428;13.584;2022-12-18T06:33:17;103240.97;;;-3.11;75.70
23016;BME280;11674;52.428;13.584;2022-12-18T06:38:24;103248.09;;;-3.10;75.45
23016;BME280;11674;52.428;13.584;2022-12-18T06:43:32;103255.50;;;-3.22;75.36
23016;BME280;11674;52.428;13.584;2022-12-18T06:48:39;103251.91;;;-3.32;75.31
23016;BME280;11674;52.428;13.584;2022-12-18T06:53:46;103264.88;;;-3.35;75.75
23016;BME280;11674;52.428;13.584;2022-12-18T06:58:53;103268.91;;;-3.30;75.55
23016;BME280;11674;52.428;13.584;2022-12-18T07:04:00;103271.63;;;-3.30;75.43
23016;BME280;11674;52.428;13.584;2022-12-18T07:09:08;103285.19;;;-3.30;75.42
23016;BME280;11674;52.428;13.584;2022-12-18T07:14:15;103280.00;;;-3.42;75.43
23016;BME280;11674;52.428;13.584;2022-12-18T07:19:23;103267.72;;;-3.46;75.57
23016;BME280;11674;52.428;13.584;2022-12-18T07:24:34;103267.44;;;-3.43;75.56
23016;BME280;11674;52.428;13.584;2022-12-18T07:29:42;103275.72;;;-3.35;75.59
23016;BME280;11674;52.428;13.584;2022-12-18T07:34:49;103286.31;;;-3.32;75.43
23016;BME280;11674;52.428;13.584;2022-12-18T07:39:59;103277.31;;;-3.33;75.53
23016;BME280;11674;52.428;13.584;2022-12-18T07:45:06;103272.00;;;-3.34;75.38
23016;BME280;11674;52.428;13.584;2022-12-18T07:50:13;103277.06;;;-3.30;75.60
23016;BME280;11674;52.428;13.584;2022-12-18T07:55:20;103280.72;;;-3.31;75.56
23016;BME280;11674;52.428;13.584;2022-12-18T08:00:26;103280.59;;;-3.29;75.36
23016;BME280;11674;52.428;13.584;2022-12-18T08:05:33;103282.50;;;-3.20;75.73
23016;BME280;11674;52.428;13.584;2022-12-18T08:10:40;103275.50;;;-3.13;75.58
23016;BME280;11674;52.428;13.584;2022-12-18T08:16:05;103283.94;;;-3.07;75.88
23016;BME280;11674;52.428;13.584;2022-12-18T08:21:24;103290.81;;;-3.03;75.88
23016;BME280;11674;52.428;13.584;2022-12-18T08:26:32;103286.66;;;-2.97;76.01
23016;BME280;11674;52.428;13.584;2022-12-18T08:31:39;103285.97;;;-2.90;76.03
23016;BME280;11674;52.428;13.584;2022-12-18T08:36:45;103286.56;;;-2.77;76.09
23016;BME280;11674;52.428;13.584;2022-12-18T08:41:53;103282.72;;;-2.65;76.19
23016;BME280;11674;52.428;13.584;2022-12-18T08:46:59;103297.59;;;-2.50;76.23
23016;BME280;11674;52.428;13.584;2022-12-18T08:52:06;103298.03;;;-2.45;76.19
23016;BME280;11674;52.428;13.584;2022-12-18T08:57:14;103297.72;;;-2.42;76.42
23016;BME280;11674;52.428;13.584;2022-12-18T09:02:20;103302.16;;;-2.31;76.25
23016;BME280;11674;52.428;13.584;2022-12-18T09:07:28;103324.59;;;-2.20;76.55
23016;BME280;11674;52.428;13.584;2022-12-18T09:12:35;103327.59;;;-2.13;76.50
23016;BME280;11674;52.428;13.584;2022-12-18T09:17:41;103326.72;;;-2.04;76.54
23016;BME280;11674;52.428;13.584;2022-12-18T09:22:48;103319.84;;;-1.99;76.64
23016;BME280;11674;52.428;13.584;2022-12-18T09:27:55;103330.69;;;-1.89;76.80
23016;BME280;11674;52.428;13.584;2022-12-18T09:33:02;103349.72;;;-1.80;76.84
23016;BME280;11674;52.428;13.584;2022-12-18T09:38:12;103338.22;;;-1.64;76.85
23016;BME280;11674;52.428;13.584;2022-12-18T09:43:43;103339.78;;;-1.62;76.94
23016;BME280;11674;52.428;13.584;2022-12-18T09:48:54;103319.88;;;-1.53;76.94
23016;BME280;11674;52.428;13.584;2022-12-18T09:54:16;103312.81;;;-1.46;76.96
23016;BME280;11674;52.428;13.584;2022-12-18T09:59:32;103303.34;;;-1.42;77.00
23016;BME280;11674;52.428;13.584;2022-12-18T10:04:41;103302.19;;;-1.39;77.00
23016;BME280;11674;52.428;13.584;2022-12-18T10:10:03;103281.16;;;-1.47;76.82
23016;BME280;11674;52.428;13.584;2022-12-18T10:21:05;103260.28;;;-1.29;77.01
23016;BME280;11674;52.428;13.584;2022-12-18T10:26:16;103278.94;;;-1.34;76.90
23016;BME280;11674;52.428;13.584;2022-12-18T10:31:24;103271.03;;;-1.27;77.17
23016;BME280;11674;52.428;13.584;2022-12-18T10:36:31;103270.03;;;-1.26;76.99
23016;BME280;11674;52.428;13.584;2022-12-18T10:41:38;103260.28;;;-1.29;77.13
23016;BME280;11674;52.428;13.584;2022-12-18T10:46:47;103252.84;;;-1.27;77.11
23016;BME280;11674;52.428;13.584;2022-12-18T10:52:14;103243.69;;;-1.26;77.13
23016;BME280;11674;52.428;13.584;2022-12-18T10:57:40;103237.84;;;-1.31;76.89
23016;BME280;11674;52.428;13.584;2022-12-18T11:02:47;103237.97;;;-1.32;77.05
23016;BME280;11674;52.428;13.584;2022-12-18T11:07:54;103226.81;;;-1.29;77.10
23016;BME280;11674;52.428;13.584;2022-12-18T11:13:22;103225.31;;;-1.24;76.95
23016;BME280;11674;52.428;13.584;2022-12-18T11:18:32;103223.59;;;-1.25;77.19
23016;BME280;11674;52.428;13.584;2022-12-18T11:23:50;103217.88;;;-1.22;77.19
23016;BME280;11674;52.428;13.584;2022-12-18T11:29:16;103221.91;;;-1.26;77.19
23016;BME280;11674;52.428;13.584;2022-12-18T11:34:28;103226.34;;;-1.25;77.00
23016;BME280;11674;52.428;13.584;2022-12-18T11:39:40;103230.22;;;-1.27;77.14
23016;BME280;11674;52.428;13.584;2022-12-18T11:50:32;103231.22;;;-1.28;77.18
23016;BME280;11674;52.428;13.584;2022-12-18T11:56:26;103235.66;;;-1.27;77.24
23016;BME280;11674;52.428;13.584;2022-12-18T12:02:11;103221.03;;;-1.26;77.17
23016;BME280;11674;52.428;13.584;2022-12-18T12:39:32;103270.09;;;-0.91;77.41
23016;BME280;11674;52.428;13.584;2022-12-18T12:44:44;103274.81;;;-0.93;77.25
23016;BME280;11674;52.428;13.584;2022-12-18T12:49:54;103276.88;;;-0.95;77.48
23016;BME280;11674;52.428;13.584;2022-12-18T12:55:04;103267.94;;;-0.88;77.34
23016;BME280;11674;52.428;13.584;2022-12-18T13:00:15;103269.19;;;-0.82;77.45
23016;BME280;11674;52.428;13.584;2022-12-18T13:10:39;103224.75;;;-0.83;77.50
23016;BME280;11674;52.428;13.584;2022-12-18T13:16:04;103215.88;;;-0.85;77.23
23016;BME280;11674;52.428;13.584;2022-12-18T13:21:25;103229.50;;;-0.85;77.39
23016;BME280;11674;52.428;13.584;2022-12-18T13:26:34;103235.94;;;-0.86;77.24
23016;BME280;11674;52.428;13.584;2022-12-18T13:36:48;103233.78;;;-0.82;77.43
23016;BME280;11674;52.428;13.584;2022-12-18T13:47:31;103225.50;;;-0.90;77.33
23016;BME280;11674;52.428;13.584;2022-12-18T13:52:39;103225.66;;;-0.92;77.51
23016;BME280;11674;52.428;13.584;2022-12-18T13:57:46;103205.56;;;-0.91;77.43
23016;BME280;11674;52.428;13.584;2022-12-18T14:02:53;103211.09;;;-1.00;77.32
23016;BME280;11674;52.428;13.584;2022-12-18T14:08:06;103198.75;;;-1.12;77.17
23016;BME280;11674;52.428;13.584;2022-12-18T14:13:41;103184.03;;;-1.19;77.19
23016;BME280;11674;52.428;13.584;2022-12-18T14:18:53;103201.53;;;-1.22;77.12
23016;BME280;11674;52.428;13.584;2022-12-18T14:24:19;103203.88;;;-1.27;77.01
23016;BME280;11674;52.428;13.584;2022-12-18T14:29:28;103196.31;;;-1.33;77.13
23016;BME280;11674;52.428;13.584;2022-12-18T14:34:36;103171.25;;;-1.36;77.19
23016;BME280;11674;52.428;13.584;2022-12-18T14:40:00;103163.25;;;-1.38;77.03
23016;BME280;11674;52.428;13.584;2022-12-18T14:50:40;103154.16;;;-1.29;77.30
23016;BME280;11674;52.428;13.584;2022-12-18T14:55:48;103137.69;;;-1.27;77.35
23016;BME280;11674;52.428;13.584;2022-12-18T15:00:55;103130.00;;;-1.32;77.09
23016;BME280;11674;52.428;13.584;2022-12-18T15:06:24;103147.22;;;-1.41;77.12
23016;BME280;11674;52.428;13.584;2022-12-18T15:11:43;103146.13;;;-1.48;77.18
23016;BME280;11674;52.428;13.584;2022-12-18T15:16:53;103172.94;;;-1.53;77.08
23016;BME280;11674;52.428;13.584;2022-12-18T15:22:01;103178.69;;;-1.56;77.08
23016;BME280;11674;52.428;13.584;2022-12-18T15:27:20;103176.69;;;-1.54;77.32
23016;BME280;11674;52.428;13.584;2022-12-18T15:32:28;103175.66;;;-1.53;77.27
23016;BME280;11674;52.428;13.584;2022-12-18T15:37:35;103167.66;;;-1.54;77.16
23016;BME280;11674;52.428;13.584;2022-12-18T15:42:42;103175.13;;;-1.56;77.04
23016;BME280;11674;52.428;13.584;2022-12-18T15:47:50;103182.56;;;-1.58;77.00
23016;BME280;11674;52.428;13.584;2022-12-18T15:52:57;103180.72;;;-1.58;77.23
23016;BME280;11674;52.428;13.584;2022-12-18T15:58:05;103180.56;;;-1.56;77.23
23016;BME280;11674;52.428;13.584;2022-12-18T16:03:12;103173.38;;;-1.57;77.08
23016;BME280;11674;52.428;13.584;2022-12-18T16:08:19;103158.94;;;-1.58;77.00
23016;BME280;11674;52.428;13.584;2022-12-18T16:13:26;103154.81;;;-1.62;76.95
23016;BME280;11674;52.428;13.584;2022-12-18T16:18:33;103151.94;;;-1.60;77.16
23016;BME280;11674;52.428;13.584;2022-12-18T16:23:40;103139.50;;;-1.63;77.00
23016;BME280;11674;52.428;13.584;2022-12-18T16:28:47;103136.78;;;-1.63;77.12
23016;BME280;11674;52.428;13.584;2022-12-18T16:34:13;103134.75;;;-1.61;77.18
23016;BME280;11674;52.428;13.584;2022-12-18T16:39:21;103131.34;;;-1.63;76.89
23016;BME280;11674;52.428;13.584;2022-12-18T16:44:28;103133.97;;;-1.71;76.87
23016;BME280;11674;52.428;13.584;2022-12-18T16:49:35;103127.13;;;-1.75;76.72
23016;BME280;11674;52.428;13.584;2022-12-18T16:54:42;103115.31;;;-1.83;76.71
23016;BME280;11674;52.428;13.584;2022-12-18T16:59:49;103113.34;;;-1.91;76.46
23016;BME280;11674;52.428;13.584;2022-12-18T17:04:56;103122.09;;;-1.97;76.48
23016;BME280;11674;52.428;13.584;2022-12-18T17:10:04;103135.44;;;-2.03;76.48
23016;BME280;11674;52.428;13.584;2022-12-18T17:15:11;103122.59;;;-2.11;76.11
23016;BME280;11674;52.428;13.584;2022-12-18T17:20:18;103113.63;;;-2.21;76.08
23016;BME280;11674;52.428;13.584;2022-12-18T17:25:25;103117.94;;;-2.28;76.10
23016;BME280;11674;52.428;13.584;2022-12-18T17:30:32;103131.13;;;-2.33;76.00
23016;BME280;11674;52.428;13.584;2022-12-18T17:35:40;103115.72;;;-2.42;76.05
23016;BME280;11674;52.428;13.584;2022-12-18T17:40:47;103108.84;;;-2.46;76.24
23016;BME280;11674;52.428;13.584;2022-12-18T17:45:54;103122.59;;;-2.47;76.07
23016;BME280;11674;52.428;13.584;2022-12-18T17:51:02;103139.31;;;-2.52;76.17
23016;BME280;11674;52.428;13.584;2022-12-18T17:56:12;103126.75;;;-2.53;76.25
23016;BME280;11674;52.428;13.584;2022-12-18T18:01:22;103120.44;;;-2.53;76.15
23016;BME280;11674;52.428;13.584;2022-12-18T18:06:29;103104.00;;;-2.52;76.18
23016;BME280;11674;52.428;13.584;2022-12-18T18:11:36;103111.16;;;-2.51;76.06
23016;BME280;11674;52.428;13.584;2022-12-18T18:16:45;103083.44;;;-2.54;75.95
23016;BME280;11674;52.428;13.584;2022-12-18T18:21:53;103085.59;;;-2.58;75.98
23016;BME280;11674;52.428;13.584;2022-12-18T18:27:00;103064.31;;;-2.62;75.98
23016;BME280;11674;52.428;13.584;2022-12-18T18:32:07;103055.75;;;-2.67;75.89
23016;BME280;11674;52.428;13.584;2022-12-18T18:37:14;103074.22;;;-2.71;75.95
23016;BME280;11674;52.428;13.584;2022-12-18T18:42:21;103052.78;;;-2.74;76.01
23016;BME280;11674;52.428;13.584;2022-12-18T18:47:28;103042.06;;;-2.75;75.88
23016;BME280;11674;52.428;13.584;2022-12-18T18:52:35;103034.22;;;-2.78;75.88
23016;BME280;11674;52.428;13.584;2022-12-18T18:57:42;103027.38;;;-2.82;75.82
23016;BME280;11674;52.428;13.584;2022-12-18T19:02:49;103011.53;;;-2.87;75.89
23016;BME280;11674;52.428;13.584;2022-12-18T19:07:56;102999.97;;;-2.89;75.94
23016;BME280;11674;52.428;13.584;2022-12-18T19:13:03;103003.00;;;-2.92;75.80
23016;BME280;11674;52.428;13.584;2022-12-18T19:18:10;103011.28;;;-2.93;75.84
23016;BME280;11674;52.428;13.584;2022-12-18T19:23:17;103001.97;;;-2.91;75.89
23016;BME280;11674;52.428;13.584;2022-12-18T19:28:24;102990.13;;;-2.90;75.85
23016;BME280;11674;52.428;13.584;2022-12-18T19:33:34;102992.97;;;-2.91;75.91
23016;BME280;11674;52.428;13.584;2022-12-18T19:38:41;102992.69;;;-2.88;75.91
23016;BME280;11674;52.428;13.584;2022-12-18T19:43:49;102989.84;;;-2.87;75.94
23016;BME280;11674;52.428;13.584;2022-12-18T19:48:58;102981.38;;;-2.84;76.17
23016;BME280;11674;52.428;13.584;2022-12-18T19:54:05;102994.19;;;-2.76;76.14
23016;BME280;11674;52.428;13.584;2022-12-18T19:59:12;102986.59;;;-2.73;76.13
23016;BME280;11674;52.428;13.584;2022-12-18T20:04:19;102976.31;;;-2.69;75.95
23016;BME280;11674;52.428;13.584;2022-12-18T20:09:26;102974.47;;;-2.69;76.15
23016;BME280;11674;52.428;13.584;2022-12-18T20:14:33;102974.16;;;-2.66;76.09
23016;BME280;11674;52.428;13.584;2022-12-18T20:19:40;102975.00;;;-2.65;76.15
23016;BME280;11674;52.428;13.584;2022-12-18T20:24:47;102980.28;;;-2.64;76.16
23016;BME280;11674;52.428;13.584;2022-12-18T20:29:54;102958.44;;;-2.62;76.14
23016;BME280;11674;52.428;13.584;2022-12-18T20:35:08;102950.28;;;-2.62;76.13
23016;BME280;11674;52.428;13.584;2022-12-18T20:40:18;102936.69;;;-2.62;76.13
23016;BME280;11674;52.428;13.584;2022-12-18T20:45:27;102946.56;;;-2.61;76.16
23016;BME280;11674;52.428;13.584;2022-12-18T20:50:34;102958.97;;;-2.59;76.05
23016;BME280;11674;52.428;13.584;2022-12-18T20:55:41;102949.81;;;-2.58;76.23
23016;BME280;11674;52.428;13.584;2022-12-18T21:00:48;102947.81;;;-2.56;76.30
23016;BME280;11674;52.428;13.584;2022-12-18T21:05:55;102920.81;;;-2.57;76.16
23016;BME280;11674;52.428;13.584;2022-12-18T21:16:25;102932.22;;;-2.54;76.36
23016;BME280;11674;52.428;13.584;2022-12-18T21:21:32;102929.03;;;-2.49;76.36
23016;BME280;11674;52.428;13.584;2022-12-18T21:26:39;102917.16;;;-2.48;76.13
23016;BME280;11674;52.428;13.584;2022-12-18T21:31:46;102910.88;;;-2.49;76.23
23016;BME280;11674;52.428;13.584;2022-12-18T21:36:59;102895.44;;;-2.48;76.10
23016;BME280;11674;52.428;13.584;2022-12-18T21:42:06;102894.59;;;-2.49;76.14
23016;BME280;11674;52.428;13.584;2022-12-18T21:47:13;102896.44;;;-2.49;76.31
23016;BME280;11674;52.428;13.584;2022-12-18T21:52:21;102895.59;;;-2.50;76.20
23016;BME280;11674;52.428;13.584;2022-12-18T21:57:28;102909.19;;;-2.50;76.29
23016;BME280;11674;52.428;13.584;2022-12-18T22:02:35;102908.19;;;-2.49;76.23
23016;BME280;11674;52.428;13.584;2022-12-18T22:07:42;102902.75;;;-2.49;76.32
23016;BME280;11674;52.428;13.584;2022-12-18T22:12:49;102888.84;;;-2.46;76.18
23016;BME280;11674;52.428;13.584;2022-12-18T22:18:05;102914.84;;;-2.43;76.14
23016;BME280;11674;52.428;13.584;2022-12-18T22:23:13;102893.84;;;-2.41;76.36
23016;BME280;11674;52.428;13.584;2022-12-18T22:28:28;102871.09;;;-2.40;76.20
23016;BME280;11674;52.428;13.584;2022-12-18T22:33:35;102880.94;;;-2.39;76.37
23016;BME280;11674;52.428;13.584;2022-12-18T22:38:49;102863.47;;;-2.37;76.41
23016;BME280;11674;52.428;13.584;2022-12-18T22:43:56;102846.50;;;-2.39;76.22
23016;BME280;11674;52.428;13.584;2022-12-18T22:49:03;102836.31;;;-2.37;76.19
23016;BME280;11674;52.428;13.584;2022-12-18T22:54:10;102826.13;;;-2.35;76.20
23016;BME280;11674;52.428;13.584;2022-12-18T22:59:24;102816.44;;;-2.37;76.18
23016;BME280;11674;52.428;13.584;2022-12-18T23:04:31;102811.00;;;-2.37;76.18
23016;BME280;11674;52.428;13.584;2022-12-18T23:09:38;102787.41;;;-2.37;76.31
23016;BME280;11674;52.428;13.584;2022-12-18T23:14:45;102774.69;;;-2.36;76.14
23016;BME280;11674;52.428;13.584;2022-12-18T23:19:52;102773.53;;;-2.34;76.30
23016;BME280;11674;52.428;13.584;2022-12-18T23:24:59;102778.25;;;-2.36;76.39
23016;BME280;11674;52.428;13.584;2022-12-18T23:30:06;102766.69;;;-2.38;76.19
23016;BME280;11674;52.428;13.584;2022-12-18T23:35:13;102759.72;;;-2.40;76.29
23016;BME280;11674;52.428;13.584;2022-12-18T23:40:27;102749.72;;;-2.40;76.32
23016;BME280;11674;52.428;13.584;2022-12-18T23:45:38;102741.56;;;-2.40;76.23
23016;BME280;11674;52.428;13.584;2022-12-18T23:50:45;102726.09;;;-2.39;76.25
23016;BME280;11674;52.428;13.584;2022-12-18T23:55:52;102699.81;;;-2.39;76.24
